Liberty — FHQD — position and weather

sailwx.info

Track history (hours):
 
Tides and Currents Weather Stations Pressure Air Temp Water Temp Dewpoint Dewpoint Depression Visibility Wind Speed Wind Dir Waves Ship Positions

Liberty

Last reported at 2018-Apr-25 21:40 UTC. Time now 2018-Apr-26 06:01 UTC.
Position N 16°06' W 061°28'.

Length 47 m; draft 1.8 m.

Type: High speed craft. MMSI: 228008600.

Date/timePositionNaut miles runAvg speedWind from/ knotsBaromVisibWave heightAir tempDewpointWater temp
2018-Apr-25 21:40N 16°06' W 061°28'527.3
2018-Apr-25 21:30N 16°11' W 061°30'4 9.0
2018-Apr-25 21:00N 16°14' W 061°33'0 0.0
2018-Apr-25 20:26N 16°14' W 061°33'0 0.0
2018-Apr-25 19:35N 16°14' W 061°33'0 0.0
2018-Apr-25 19:30N 16°14' W 061°33'0 0.0
2018-Apr-25 18:59N 16°14' W 061°33'0 0.0
2018-Apr-25 10:39N 16°14' W 061°33'0 0.0
2018-Apr-25 08:17N 16°14' W 061°33'0 0.0
2018-Apr-25 02:14N 16°14' W 061°33'0 0.0
2018-Apr-25 01:46N 16°14' W 061°33'0 0.0
2018-Apr-25 01:21N 16°14' W 061°33'0 0.0
2018-Apr-24 21:42N 16°14' W 061°33'0 0.2
2018-Apr-24 21:29N 16°14' W 061°33'0 0.2
2018-Apr-24 20:59N 16°14' W 061°33'8 2.3
2018-Apr-24 17:39N 16°08' W 061°28'625.9
2018-Apr-24 17:25N 16°13' W 061°32'1 3.2
2018-Apr-24 17:01N 16°14' W 061°33'8 1.9
2018-Apr-24 12:39N 16°07' W 061°28'527.3
2018-Apr-24 12:29N 16°11' W 061°31'3 6.4
2018-Apr-24 11:56N 16°14' W 061°33'0 0.0
2018-Apr-24 11:11N 16°14' W 061°33'0 1.0
2018-Apr-24 11:00N 16°14' W 061°33'8 0.6
2018-Apr-23 21:40N 16°07' W 061°28'627.8
2018-Apr-23 21:27N 16°12' W 061°32'2 4.5
2018-Apr-23 20:57N 16°14' W 061°33'0 0.0
2018-Apr-23 20:30N 16°14' W 061°33'0 0.0
2018-Apr-23 19:58N 16°14' W 061°33'0 0.0
2018-Apr-23 19:28N 16°14' W 061°33'0 0.0
2018-Apr-23 19:00N 16°14' W 061°33'0 0.0
2018-Apr-23 18:26N 16°14' W 061°33'0 0.0
2018-Apr-23 17:32N 16°14' W 061°33'0 4.6
2018-Apr-23 17:30N 16°14' W 061°33'9924.2
2018-Apr-23 13:26N 14°38' W 061°09'6 8.8
2018-Apr-23 12:47N 14°36' W 061°04'0 0.0
2018-Apr-23 12:19N 14°36' W 061°04'410.6
2018-Apr-23 11:58N 14°33' W 061°06'1327.2
2018-Apr-23 11:29N 14°20' W 061°04'3 0.3
2018-Apr-23 00:04N 14°16' W 061°04'126.3
2018-Apr-23 00:00N 14°18' W 061°04'1427.3
2018-Apr-22 23:29N 14°32' W 061°06'5 4.9
2018-Apr-22 22:27N 14°36' W 061°04'8922.6
2018-Apr-22 18:33N 16°01' W 061°29'227.1
2018-Apr-22 18:28N 16°03' W 061°29'1123.2
2018-Apr-22 18:00N 16°14' W 061°32'1 0.6
2018-Apr-22 16:38N 16°14' W 061°32'0 0.0
2018-Apr-22 16:29N 16°14' W 061°32'0 0.0
2018-Apr-22 16:00N 16°14' W 061°32'0 0.0
2018-Apr-22 15:26N 16°14' W 061°32'0 0.0
2018-Apr-22 14:59N 16°14' W 061°32'0 0.0
2018-Apr-22 14:30N 16°14' W 061°32'0 0.0
2018-Apr-22 13:59N 16°14' W 061°32'0 0.0
2018-Apr-22 13:18N 16°14' W 061°32'0 0.0
2018-Apr-22 12:55N 16°14' W 061°32'0 0.0
2018-Apr-22 12:29N 16°14' W 061°32'0 0.0
2018-Apr-22 11:50N 16°14' W 061°32'0 0.0
2018-Apr-22 11:24N 16°14' W 061°32'0 0.0
2018-Apr-22 10:59N 16°14' W 061°32'0 0.0
2018-Apr-22 10:25N 16°14' W 061°32'0 0.0
2018-Apr-22 09:58N 16°14' W 061°32'0 0.0
2018-Apr-22 09:23N 16°14' W 061°32'0 0.0
2018-Apr-22 09:00N 16°14' W 061°32'0 0.0
2018-Apr-22 08:27N 16°14' W 061°32'0 0.0
2018-Apr-22 07:57N 16°14' W 061°32'0 0.0
2018-Apr-22 07:29N 16°14' W 061°32'0 0.0
2018-Apr-22 07:00N 16°14' W 061°32'0 0.0
2018-Apr-22 06:27N 16°14' W 061°32'0 0.0
2018-Apr-22 06:00N 16°14' W 061°32'0 0.0
2018-Apr-22 04:54N 16°14' W 061°32'0 0.0
2018-Apr-22 04:08N 16°14' W 061°32'0 0.0
2018-Apr-22 03:55N 16°14' W 061°32'0 0.0
2018-Apr-22 03:11N 16°14' W 061°32'0 0.0
2018-Apr-21 22:49N 16°14' W 061°32'0 0.2
2018-Apr-21 22:24N 16°14' W 061°33'2122.9
2018-Apr-21 21:30N 15°54' W 061°35'7817.8
2018-Apr-21 17:06N 14°39' W 061°10'329.3
2018-Apr-21 16:59N 14°37' W 061°08'4 7.8
2018-Apr-21 16:29N 14°36' W 061°04'0 0.0
2018-Apr-21 15:51N 14°36' W 061°04'720.2
2018-Apr-21 15:30N 14°30' W 061°07'1428.1
2018-Apr-21 15:00N 14°16' W 061°03'5 0.3
2018-Apr-20 18:17N 14°11' W 061°02'725.6
2018-Apr-20 18:01N 14°18' W 061°03'1427.1
2018-Apr-20 17:30N 14°31' W 061°07'611.4
2018-Apr-20 17:00N 14°36' W 061°04'0 0.0
2018-Apr-20 16:31N 14°36' W 061°04'9022.6
2018-Apr-20 12:32N 16°03' W 061°30'227.3
2018-Apr-20 12:28N 16°04' W 061°31'1021.6
2018-Apr-20 12:00N 16°14' W 061°32'0 0.3
2018-Apr-20 11:04N 16°14' W 061°32'0 4.9
2018-Apr-20 11:00N 16°14' W 061°32'8 0.6
2018-Apr-19 21:46N 16°07' W 061°28'823.4
2018-Apr-19 21:27N 16°13' W 061°32'0 0.8
2018-Apr-19 21:00N 16°13' W 061°32'5 1.4
2018-Apr-19 17:44N 16°09' W 061°29'521.3
2018-Apr-19 17:29N 16°14' W 061°32'0 0.9
2018-Apr-19 17:00N 16°14' W 061°32'8 1.8
2018-Apr-19 12:42N 16°07' W 061°28'524.2
2018-Apr-19 12:30N 16°12' W 061°31'3 3.0
2018-Apr-19 11:29N 16°14' W 061°33'0 0.9
2018-Apr-19 11:00N 16°14' W 061°32'6 0.5
2018-Apr-18 21:41N 16°09' W 061°29'526.1
2018-Apr-18 21:30N 16°13' W 061°32'1 2.6
2018-Apr-18 21:01N 16°14' W 061°32'7 2.2
2018-Apr-18 17:41N 16°08' W 061°28'526.1
2018-Apr-18 17:29N 16°12' W 061°31'2 4.0
2018-Apr-18 17:00N 16°14' W 061°32'4 0.9
2018-Apr-18 12:33N 16°10' W 061°30'127.0
2018-Apr-18 12:30N 16°12' W 061°31'3 6.6
2018-Apr-18 12:00N 16°14' W 061°33'0 0.0
2018-Apr-18 11:30N 16°14' W 061°33'1 1.2
2018-Apr-18 11:00N 16°14' W 061°32'7 0.5
2018-Apr-17 21:37N 16°08' W 061°28'327.5
2018-Apr-17 21:29N 16°11' W 061°30'4 7.6
2018-Apr-17 21:00N 16°14' W 061°32'8 2.4
2018-Apr-17 17:43N 16°08' W 061°28'627.6
2018-Apr-17 17:30N 16°12' W 061°31'2 4.8
2018-Apr-17 17:00N 16°14' W 061°32'7 1.5
2018-Apr-17 12:39N 16°09' W 061°29'427.2
2018-Apr-17 12:30N 16°12' W 061°31'3 5.4
2018-Apr-17 12:00N 16°14' W 061°33'0 0.0
2018-Apr-17 11:30N 16°14' W 061°33'1 1.6
2018-Apr-17 11:00N 16°14' W 061°32'1122.5
2018-Apr-17 10:31N 16°04' W 061°26'1 0.1
2018-Apr-16 21:45N 16°05' W 061°27'727.5
2018-Apr-16 21:30N 16°11' W 061°30'4 2.0
2018-Apr-16 19:25N 16°14' W 061°33'0 0.0
2018-Apr-16 19:00N 16°14' W 061°33'0 0.0
2018-Apr-16 18:27N 16°14' W 061°33'0 0.0
2018-Apr-16 17:58N 16°14' W 061°33'1 3.0
2018-Apr-16 17:30N 16°13' W 061°32'9523.8
2018-Apr-16 13:30N 14°40' W 061°12'815.1
2018-Apr-16 12:56N 14°36' W 061°04'0 0.1
2018-Apr-16 12:25N 14°36' W 061°04'1023.9
2018-Apr-16 11:59N 14°26' W 061°06'10 0.8
2018-Apr-16 00:05N 14°17' W 061°03'227.9
2018-Apr-16 00:01N 14°19' W 061°04'1427.0
2018-Apr-15 23:29N 14°33' W 061°06'4 3.1
2018-Apr-15 22:17N 14°36' W 061°04'414.3
2018-Apr-15 22:01N 14°37' W 061°08'  
Track history (hours):
 
Tides and Currents Weather Stations Pressure Air Temp Water Temp Dewpoint Dewpoint Depression Visibility Wind Speed Wind Dir Waves Ship Positions

Liberty

Last reported at 2018-Apr-25 21:40 UTC. Time now 2018-Apr-26 06:01 UTC.
Position N 16°06' W 061°28'.

Length 47 m; draft 1.8 m.

Type: High speed craft. MMSI: 228008600.

Date/timePositionNaut miles runAvg speedWind from/ knotsBaromVisibWave heightAir tempDewpointWater temp
2018-Apr-25 21:40N 16°06' W 061°28'527.3
2018-Apr-25 21:30N 16°11' W 061°30'4 9.0
2018-Apr-25 21:00N 16°14' W 061°33'0 0.0
2018-Apr-25 20:26N 16°14' W 061°33'0 0.0
2018-Apr-25 19:35N 16°14' W 061°33'0 0.0
2018-Apr-25 19:30N 16°14' W 061°33'0 0.0
2018-Apr-25 18:59N 16°14' W 061°33'0 0.0
2018-Apr-25 10:39N 16°14' W 061°33'0 0.0
2018-Apr-25 08:17N 16°14' W 061°33'0 0.0
2018-Apr-25 02:14N 16°14' W 061°33'0 0.0
2018-Apr-25 01:46N 16°14' W 061°33'0 0.0
2018-Apr-25 01:21N 16°14' W 061°33'0 0.0
2018-Apr-24 21:42N 16°14' W 061°33'0 0.2
2018-Apr-24 21:29N 16°14' W 061°33'0 0.2
2018-Apr-24 20:59N 16°14' W 061°33'8 2.3
2018-Apr-24 17:39N 16°08' W 061°28'625.9
2018-Apr-24 17:25N 16°13' W 061°32'1 3.2
2018-Apr-24 17:01N 16°14' W 061°33'8 1.9
2018-Apr-24 12:39N 16°07' W 061°28'527.3
2018-Apr-24 12:29N 16°11' W 061°31'3 6.4
2018-Apr-24 11:56N 16°14' W 061°33'0 0.0
2018-Apr-24 11:11N 16°14' W 061°33'0 1.0
2018-Apr-24 11:00N 16°14' W 061°33'8 0.6
2018-Apr-23 21:40N 16°07' W 061°28'627.8
2018-Apr-23 21:27N 16°12' W 061°32'2 4.5
2018-Apr-23 20:57N 16°14' W 061°33'0 0.0
2018-Apr-23 20:30N 16°14' W 061°33'0 0.0
2018-Apr-23 19:58N 16°14' W 061°33'0 0.0
2018-Apr-23 19:28N 16°14' W 061°33'0 0.0
2018-Apr-23 19:00N 16°14' W 061°33'0 0.0
2018-Apr-23 18:26N 16°14' W 061°33'0 0.0
2018-Apr-23 17:32N 16°14' W 061°33'0 4.6
2018-Apr-23 17:30N 16°14' W 061°33'9924.2
2018-Apr-23 13:26N 14°38' W 061°09'6 8.8
2018-Apr-23 12:47N 14°36' W 061°04'0 0.0
2018-Apr-23 12:19N 14°36' W 061°04'410.6
2018-Apr-23 11:58N 14°33' W 061°06'1327.2
2018-Apr-23 11:29N 14°20' W 061°04'3 0.3
2018-Apr-23 00:04N 14°16' W 061°04'126.3
2018-Apr-23 00:00N 14°18' W 061°04'1427.3
2018-Apr-22 23:29N 14°32' W 061°06'5 4.9
2018-Apr-22 22:27N 14°36' W 061°04'8922.6
2018-Apr-22 18:33N 16°01' W 061°29'227.1
2018-Apr-22 18:28N 16°03' W 061°29'1123.2
2018-Apr-22 18:00N 16°14' W 061°32'1 0.6
2018-Apr-22 16:38N 16°14' W 061°32'0 0.0
2018-Apr-22 16:29N 16°14' W 061°32'0 0.0
2018-Apr-22 16:00N 16°14' W 061°32'0 0.0
2018-Apr-22 15:26N 16°14' W 061°32'0 0.0
2018-Apr-22 14:59N 16°14' W 061°32'0 0.0
2018-Apr-22 14:30N 16°14' W 061°32'0 0.0
2018-Apr-22 13:59N 16°14' W 061°32'0 0.0
2018-Apr-22 13:18N 16°14' W 061°32'0 0.0
2018-Apr-22 12:55N 16°14' W 061°32'0 0.0
2018-Apr-22 12:29N 16°14' W 061°32'0 0.0
2018-Apr-22 11:50N 16°14' W 061°32'0 0.0
2018-Apr-22 11:24N 16°14' W 061°32'0 0.0
2018-Apr-22 10:59N 16°14' W 061°32'0 0.0
2018-Apr-22 10:25N 16°14' W 061°32'0 0.0
2018-Apr-22 09:58N 16°14' W 061°32'0 0.0
2018-Apr-22 09:23N 16°14' W 061°32'0 0.0
2018-Apr-22 09:00N 16°14' W 061°32'0 0.0
2018-Apr-22 08:27N 16°14' W 061°32'0 0.0
2018-Apr-22 07:57N 16°14' W 061°32'0 0.0
2018-Apr-22 07:29N 16°14' W 061°32'0 0.0
2018-Apr-22 07:00N 16°14' W 061°32'0 0.0
2018-Apr-22 06:27N 16°14' W 061°32'0 0.0
2018-Apr-22 06:00N 16°14' W 061°32'0 0.0
2018-Apr-22 04:54N 16°14' W 061°32'0 0.0
2018-Apr-22 04:08N 16°14' W 061°32'0 0.0
2018-Apr-22 03:55N 16°14' W 061°32'0 0.0
2018-Apr-22 03:11N 16°14' W 061°32'0 0.0
2018-Apr-21 22:49N 16°14' W 061°32'0 0.2
2018-Apr-21 22:24N 16°14' W 061°33'2122.9
2018-Apr-21 21:30N 15°54' W 061°35'7817.8
2018-Apr-21 17:06N 14°39' W 061°10'329.3
2018-Apr-21 16:59N 14°37' W 061°08'4 7.8
2018-Apr-21 16:29N 14°36' W 061°04'0 0.0
2018-Apr-21 15:51N 14°36' W 061°04'720.2
2018-Apr-21 15:30N 14°30' W 061°07'1428.1
2018-Apr-21 15:00N 14°16' W 061°03'5 0.3
2018-Apr-20 18:17N 14°11' W 061°02'725.6
2018-Apr-20 18:01N 14°18' W 061°03'1427.1
2018-Apr-20 17:30N 14°31' W 061°07'611.4
2018-Apr-20 17:00N 14°36' W 061°04'0 0.0
2018-Apr-20 16:31N 14°36' W 061°04'9022.6
2018-Apr-20 12:32N 16°03' W 061°30'227.3
2018-Apr-20 12:28N 16°04' W 061°31'1021.6
2018-Apr-20 12:00N 16°14' W 061°32'0 0.3
2018-Apr-20 11:04N 16°14' W 061°32'0 4.9
2018-Apr-20 11:00N 16°14' W 061°32'8 0.6
2018-Apr-19 21:46N 16°07' W 061°28'823.4
2018-Apr-19 21:27N 16°13' W 061°32'0 0.8
2018-Apr-19 21:00N 16°13' W 061°32'5 1.4
2018-Apr-19 17:44N 16°09' W 061°29'521.3
2018-Apr-19 17:29N 16°14' W 061°32'0 0.9
2018-Apr-19 17:00N 16°14' W 061°32'8 1.8
2018-Apr-19 12:42N 16°07' W 061°28'524.2
2018-Apr-19 12:30N 16°12' W 061°31'3 3.0
2018-Apr-19 11:29N 16°14' W 061°33'0 0.9
2018-Apr-19 11:00N 16°14' W 061°32'6 0.5
2018-Apr-18 21:41N 16°09' W 061°29'526.1
2018-Apr-18 21:30N 16°13' W 061°32'1 2.6
2018-Apr-18 21:01N 16°14' W 061°32'7 2.2
2018-Apr-18 17:41N 16°08' W 061°28'526.1
2018-Apr-18 17:29N 16°12' W 061°31'2 4.0
2018-Apr-18 17:00N 16°14' W 061°32'4 0.9
2018-Apr-18 12:33N 16°10' W 061°30'127.0
2018-Apr-18 12:30N 16°12' W 061°31'3 6.6
2018-Apr-18 12:00N 16°14' W 061°33'0 0.0
2018-Apr-18 11:30N 16°14' W 061°33'1 1.2
2018-Apr-18 11:00N 16°14' W 061°32'7 0.5
2018-Apr-17 21:37N 16°08' W 061°28'327.5
2018-Apr-17 21:29N 16°11' W 061°30'4 7.6
2018-Apr-17 21:00N 16°14' W 061°32'8 2.4
2018-Apr-17 17:43N 16°08' W 061°28'627.6
2018-Apr-17 17:30N 16°12' W 061°31'2 4.8
2018-Apr-17 17:00N 16°14' W 061°32'7 1.5
2018-Apr-17 12:39N 16°09' W 061°29'427.2
2018-Apr-17 12:30N 16°12' W 061°31'3 5.4
2018-Apr-17 12:00N 16°14' W 061°33'0 0.0
2018-Apr-17 11:30N 16°14' W 061°33'1 1.6
2018-Apr-17 11:00N 16°14' W 061°32'1122.5
2018-Apr-17 10:31N 16°04' W 061°26'1 0.1
2018-Apr-16 21:45N 16°05' W 061°27'727.5
2018-Apr-16 21:30N 16°11' W 061°30'4 2.0
2018-Apr-16 19:25N 16°14' W 061°33'0 0.0
2018-Apr-16 19:00N 16°14' W 061°33'0 0.0
2018-Apr-16 18:27N 16°14' W 061°33'0 0.0
2018-Apr-16 17:58N 16°14' W 061°33'1 3.0
2018-Apr-16 17:30N 16°13' W 061°32'9523.8
2018-Apr-16 13:30N 14°40' W 061°12'815.1
2018-Apr-16 12:56N 14°36' W 061°04'0 0.1
2018-Apr-16 12:25N 14°36' W 061°04'1023.9
2018-Apr-16 11:59N 14°26' W 061°06'10 0.8
2018-Apr-16 00:05N 14°17' W 061°03'227.9
2018-Apr-16 00:01N 14°19' W 061°04'1427.0
2018-Apr-15 23:29N 14°33' W 061°06'4 3.1
2018-Apr-15 22:17N 14°36' W 061°04'414.3
2018-Apr-15 22:01N 14°37' W 061°08'  

Dump ship's entire track history